Time;durP1;ratioP1;P1;durP2;ratioP2;P2;SDS_P1;SDS_P2;PMS_P1;PMS_P2;Temp;Humidity;BMP_temperature;BMP_pressure;BME280_temperature;BME280_humidity;BME280_pressure;Samples;Min_cycle;Max_cycle;Signal;HPM_P1;HPM_P2
2022/03/17 00:01:05;;;;;;;25.92;17.55;;;;;;;;;;4988209;28;20724;-70
2022/03/17 00:03:32;;;;;;;25.00;18.20;;;;;;;;;;5011281;28;20120;-70
2022/03/17 00:06:00;;;;;;;24.88;19.05;;;;;;;;;;4988901;28;20058;-70
2022/03/17 00:08:27;;;;;;;22.50;17.48;;;;;;;;;;4987880;28;20054;-70
2022/03/17 00:10:54;;;;;;;23.88;18.23;;;;;;;;;;4985353;28;20050;-70
2022/03/17 00:13:23;;;;;;;25.30;18.38;;;;;;;;;;4987125;28;20057;-70
2022/03/17 00:15:50;;;;;;;28.27;18.85;;;;;;;;;;4989446;28;20112;-70
2022/03/17 00:18:17;;;;;;;26.55;19.23;;;;;;;;;;4987222;28;20046;-70
2022/03/17 00:20:44;;;;;;;26.33;17.65;;;;;;;;;;4987161;28;20060;-70
2022/03/17 00:23:12;;;;;;;28.25;18.67;;;;;;;;;;4991543;28;21382;-70
2022/03/17 00:25:39;;;;;;;30.23;19.48;;;;;;;;;;4984829;28;20054;-70
2022/03/17 00:28:06;;;;;;;25.23;18.30;;;;;;;;;;4986486;28;20062;-70
2022/03/17 00:30:35;;;;;;;24.45;17.50;;;;;;;;;;4985178;28;20551;-70
2022/03/17 00:33:02;;;;;;;23.27;18.55;;;;;;;;;;4985958;28;20060;-70
2022/03/17 00:35:42;;;;;;;25.00;18.85;;;;;;;;;;4990050;28;20398;-70
2022/03/17 00:38:10;;;;;;;25.65;18.45;;;;;;;;;;4985589;28;20160;-70
2022/03/17 00:40:38;;;;;;;23.77;18.02;;;;;;;;;;4983557;28;20061;-70
2022/03/17 00:43:05;;;;;;;27.13;19.25;;;;;;;;;;4991171;28;20062;-70
2022/03/17 00:45:32;;;;;;;27.98;19.08;;;;;;;;;;4988719;28;20045;-70
2022/03/17 00:48:01;;;;;;;24.73;18.63;;;;;;;;;;4986697;28;20058;-70
2022/03/17 00:50:28;;;;;;;24.50;18.65;;;;;;;;;;4992587;28;20057;-70
2022/03/17 00:52:55;;;;;;;22.88;18.20;;;;;;;;;;4985249;28;20069;-70
2022/03/17 00:55:23;;;;;;;25.73;19.02;;;;;;;;;;4988003;28;20061;-70
2022/03/17 00:57:50;;;;;;;25.98;18.73;;;;;;;;;;4990091;28;20050;-70
2022/03/17 01:00:18;;;;;;;25.30;19.40;;;;;;;;;;4988231;28;20057;-70
2022/03/17 01:02:46;;;;;;;24.67;18.73;;;;;;;;;;4992494;28;20792;-70
2022/03/17 01:05:15;;;;;;;28.85;19.58;;;;;;;;;;4996024;28;20049;-70
2022/03/17 01:07:42;;;;;;;27.70;19.27;;;;;;;;;;4990067;28;20520;-70
2022/03/17 01:10:11;;;;;;;26.95;19.83;;;;;;;;;;4996163;28;20053;-70
2022/03/17 01:12:38;;;;;;;25.92;19.50;;;;;;;;;;4991083;28;20053;-70
2022/03/17 01:15:07;;;;;;;26.88;18.90;;;;;;;;;;4992848;28;20128;-70
2022/03/17 01:17:34;;;;;;;25.13;19.73;;;;;;;;;;4987672;28;20049;-70
2022/03/17 01:20:01;;;;;;;25.92;20.02;;;;;;;;;;4986704;28;20061;-70
2022/03/17 01:22:30;;;;;;;31.77;20.90;;;;;;;;;;4987587;28;20523;-70
2022/03/17 01:24:57;;;;;;;28.00;21.05;;;;;;;;;;5006770;28;20061;-70
2022/03/17 01:27:25;;;;;;;30.30;19.33;;;;;;;;;;4989593;28;20049;-70
2022/03/17 01:29:53;;;;;;;26.08;21.25;;;;;;;;;;4987878;28;20057;-70
2022/03/17 01:32:21;;;;;;;26.80;20.52;;;;;;;;;;4990881;28;20571;-70
2022/03/17 01:34:49;;;;;;;27.27;21.42;;;;;;;;;;4990531;28;20108;-70
2022/03/17 01:37:16;;;;;;;27.02;20.85;;;;;;;;;;4994512;28;20058;-70
2022/03/17 01:39:45;;;;;;;27.38;21.73;;;;;;;;;;4989319;28;20049;-70
2022/03/17 01:42:12;;;;;;;28.45;21.35;;;;;;;;;;4987633;28;20068;-70
2022/03/17 01:44:40;;;;;;;27.15;21.08;;;;;;;;;;4989019;28;20116;-70
2022/03/17 01:49:52;;;;;;;29.05;22.52;;;;;;;;;;4989560;28;20111;-70
2022/03/17 01:52:19;;;;;;;30.80;22.98;;;;;;;;;;4989605;28;20127;-70
2022/03/17 01:54:48;;;;;;;32.97;24.25;;;;;;;;;;4990901;28;20069;-70
2022/03/17 01:57:15;;;;;;;31.73;24.90;;;;;;;;;;4990176;28;20045;-70
2022/03/17 01:59:43;;;;;;;35.90;23.67;;;;;;;;;;4989379;28;20100;-70
2022/03/17 02:02:12;;;;;;;32.20;24.05;;;;;;;;;;4989664;28;20057;-69
2022/03/17 02:04:40;;;;;;;31.52;23.05;;;;;;;;;;4991627;28;20053;-68
2022/03/17 02:07:08;;;;;;;31.35;24.00;;;;;;;;;;4989286;28;20559;-68
2022/03/17 02:09:36;;;;;;;37.33;25.45;;;;;;;;;;4995910;28;20053;-68
2022/03/17 02:14:50;;;;;;;34.92;25.33;;;;;;;;;;4992127;28;20061;-68
2022/03/17 02:17:18;;;;;;;30.80;24.42;;;;;;;;;;4988167;28;20073;-68
2022/03/17 02:19:45;;;;;;;34.55;25.00;;;;;;;;;;4987819;28;20065;-68
2022/03/17 02:22:14;;;;;;;32.20;24.15;;;;;;;;;;4993364;28;20053;-68
2022/03/17 02:27:34;;;;;;;30.52;24.40;;;;;;;;;;4969585;28;20393;-68
2022/03/17 02:30:03;;;;;;;33.05;25.83;;;;;;;;;;4989571;28;20049;-68
2022/03/17 02:32:30;;;;;;;36.75;26.58;;;;;;;;;;4993816;28;20056;-68
2022/03/17 02:34:57;;;;;;;33.67;25.33;;;;;;;;;;4989810;28;20058;-68
2022/03/17 02:37:25;;;;;;;30.63;25.17;;;;;;;;;;4990422;28;20054;-68
2022/03/17 02:39:54;;;;;;;35.03;26.83;;;;;;;;;;4990034;28;20057;-68
2022/03/17 02:42:21;;;;;;;32.92;25.80;;;;;;;;;;4991860;28;20073;-68
2022/03/17 02:44:49;;;;;;;34.53;25.55;;;;;;;;;;4989635;28;20129;-68
2022/03/17 02:47:16;;;;;;;33.55;26.50;;;;;;;;;;4989206;28;20133;-68
2022/03/17 02:49:43;;;;;;;34.33;25.75;;;;;;;;;;4991097;28;20140;-68
2022/03/17 02:52:10;;;;;;;34.60;26.17;;;;;;;;;;4990097;28;20128;-68
2022/03/17 02:54:38;;;;;;;36.92;26.20;;;;;;;;;;4988229;28;20735;-68
2022/03/17 02:57:07;;;;;;;32.88;26.27;;;;;;;;;;4991140;28;20053;-68
2022/03/17 02:59:34;;;;;;;37.08;27.83;;;;;;;;;;4989378;28;20120;-70
2022/03/17 03:02:04;;;;;;;35.00;27.15;;;;;;;;;;4986655;28;20051;-68
2022/03/17 03:04:33;;;;;;;35.53;27.58;;;;;;;;;;4990873;28;20045;-68
2022/03/17 03:07:02;;;;;;;40.08;28.60;;;;;;;;;;4988961;28;20056;-68
2022/03/17 03:09:29;;;;;;;40.35;31.23;;;;;;;;;;4991444;28;20073;-68
2022/03/17 03:11:57;;;;;;;39.50;29.73;;;;;;;;;;4986150;28;20512;-68
2022/03/17 03:14:26;;;;;;;40.80;32.38;;;;;;;;;;4983637;28;20045;-68
2022/03/17 03:16:53;;;;;;;39.63;31.42;;;;;;;;;;4991562;28;20477;-68
2022/03/17 03:19:20;;;;;;;48.67;33.80;;;;;;;;;;4987657;28;20061;-68
2022/03/17 03:21:48;;;;;;;46.97;34.38;;;;;;;;;;4988698;28;20057;-68
2022/03/17 03:24:16;;;;;;;53.65;37.58;;;;;;;;;;4987723;28;20054;-68
2022/03/17 03:26:43;;;;;;;47.30;35.28;;;;;;;;;;4986809;28;20057;-68
2022/03/17 03:29:15;;;;;;;57.03;38.38;;;;;;;;;;4990112;28;20064;-68
2022/03/17 03:31:43;;;;;;;52.20;36.30;;;;;;;;;;4988383;28;20136;-68
2022/03/17 03:34:11;;;;;;;48.15;34.88;;;;;;;;;;4992708;28;20058;-67
2022/03/17 03:39:23;;;;;;;55.40;37.75;;;;;;;;;;4990548;28;20068;-67
2022/03/17 03:41:50;;;;;;;57.33;38.85;;;;;;;;;;4990034;28;20053;-67
2022/03/17 03:44:17;;;;;;;61.67;40.78;;;;;;;;;;4989211;28;20448;-67
2022/03/17 03:46:46;;;;;;;64.18;41.20;;;;;;;;;;4992074;28;20053;-67
2022/03/17 03:49:13;;;;;;;62.17;41.20;;;;;;;;;;4991435;28;20069;-66
2022/03/17 03:51:40;;;;;;;73.05;43.00;;;;;;;;;;4990338;28;20129;-66
2022/03/17 03:54:14;;;;;;;77.20;45.88;;;;;;;;;;4990872;28;20065;-66
2022/03/17 03:56:41;;;;;;;68.43;42.78;;;;;;;;;;4988577;28;20061;-65
2022/03/17 03:59:08;;;;;;;81.05;44.72;;;;;;;;;;4997023;28;20053;-65
2022/03/17 04:01:36;;;;;;;77.15;41.17;;;;;;;;;;4993043;28;20053;-65
2022/03/17 04:04:04;;;;;;;49.47;29.92;;;;;;;;;;4991326;28;20050;-65
2022/03/17 04:06:33;;;;;;;25.40;16.02;;;;;;;;;;4989491;28;20488;-65
2022/03/17 04:09:00;;;;;;;18.85;10.85;;;;;;;;;;4990804;28;20057;-65
2022/03/17 04:11:27;;;;;;;21.42;10.73;;;;;;;;;;4995417;28;20466;-65
2022/03/17 04:13:54;;;;;;;20.88;11.32;;;;;;;;;;4992767;28;20061;-65
2022/03/17 04:16:21;;;;;;;25.92;12.70;;;;;;;;;;4990602;28;20053;-65
2022/03/17 04:18:49;;;;;;;24.85;12.40;;;;;;;;;;4987897;28;20123;-65
2022/03/17 04:21:18;;;;;;;30.42;12.75;;;;;;;;;;4987607;28;20061;-65
2022/03/17 04:23:45;;;;;;;31.13;13.85;;;;;;;;;;4992466;28;20051;-65
2022/03/17 04:26:13;;;;;;;24.40;11.80;;;;;;;;;;4992336;28;20088;-65
2022/03/17 04:28:40;;;;;;;25.50;11.88;;;;;;;;;;4993316;28;20692;-65
2022/03/17 04:31:07;;;;;;;27.45;12.15;;;;;;;;;;5008998;28;20105;-65
2022/03/17 04:33:34;;;;;;;26.33;11.82;;;;;;;;;;4986694;28;20077;-65
2022/03/17 04:36:03;;;;;;;20.90;10.05;;;;;;;;;;4991577;28;20420;-65
2022/03/17 04:38:31;;;;;;;23.88;10.20;;;;;;;;;;4992393;28;20129;-65
2022/03/17 04:40:58;;;;;;;27.30;10.68;;;;;;;;;;4990159;28;20058;-65
2022/03/17 04:43:26;;;;;;;31.17;11.70;;;;;;;;;;4991990;28;20144;-65
2022/03/17 04:45:53;;;;;;;25.30;11.68;;;;;;;;;;4991745;28;20053;-65
2022/03/17 04:48:20;;;;;;;32.35;12.73;;;;;;;;;;4991540;28;20053;-65
2022/03/17 04:50:47;;;;;;;30.50;13.50;;;;;;;;;;4987090;28;20124;-65
2022/03/17 04:53:32;;;;;;;32.92;14.23;;;;;;;;;;4992384;28;20061;-65
2022/03/17 04:56:01;;;;;;;41.30;16.25;;;;;;;;;;4994787;28;20085;-65
2022/03/17 04:58:29;;;;;;;41.45;16.13;;;;;;;;;;4996449;28;20058;-65
2022/03/17 05:00:57;;;;;;;50.67;18.88;;;;;;;;;;4991031;28;20050;-65
2022/03/17 05:03:24;;;;;;;38.20;14.55;;;;;;;;;;5016068;28;20449;-65
2022/03/17 05:05:52;;;;;;;39.53;15.32;;;;;;;;;;5009305;28;20526;-65
2022/03/17 05:08:19;;;;;;;53.17;15.35;;;;;;;;;;4992487;28;20493;-65
2022/03/17 05:10:47;;;;;;;35.78;9.68;;;;;;;;;;4992746;28;20115;-65
2022/03/17 05:13:17;;;;;;;25.70;7.50;;;;;;;;;;5008814;28;20234;-65
2022/03/17 05:15:46;;;;;;;32.03;6.47;;;;;;;;;;4994947;28;20053;-65
2022/03/17 05:18:13;;;;;;;26.15;4.85;;;;;;;;;;5008893;28;20540;-65
2022/03/17 05:20:41;;;;;;;25.30;4.47;;;;;;;;;;4991658;28;20489;-65
2022/03/17 05:23:09;;;;;;;24.92;4.63;;;;;;;;;;4991372;28;20057;-65
2022/03/17 05:25:38;;;;;;;29.50;5.13;;;;;;;;;;5013427;28;20420;-65
2022/03/17 05:28:05;;;;;;;20.88;3.67;;;;;;;;;;4993797;28;20141;-65
2022/03/17 05:30:34;;;;;;;22.38;3.72;;;;;;;;;;4994733;28;20050;-65
2022/03/17 05:33:02;;;;;;;23.88;3.90;;;;;;;;;;4994886;28;20190;-65
2022/03/17 05:35:29;;;;;;;21.42;3.88;;;;;;;;;;5011271;28;20117;-65
2022/03/17 05:37:57;;;;;;;29.25;4.20;;;;;;;;;;5015060;28;20091;-65
2022/03/17 05:40:24;;;;;;;27.00;4.15;;;;;;;;;;4991587;28;20041;-65
2022/03/17 05:42:53;;;;;;;27.30;3.85;;;;;;;;;;4991364;28;20049;-65
2022/03/17 05:45:20;;;;;;;23.85;4.00;;;;;;;;;;4997114;28;20052;-65
2022/03/17 05:47:49;;;;;;;24.95;3.70;;;;;;;;;;4990787;28;20054;-65
2022/03/17 05:50:17;;;;;;;17.13;3.95;;;;;;;;;;4994591;28;20053;-65
2022/03/17 05:52:45;;;;;;;15.65;3.28;;;;;;;;;;5010910;28;20054;-65
2022/03/17 05:55:13;;;;;;;22.55;3.88;;;;;;;;;;4995631;28;20050;-65
2022/03/17 05:57:41;;;;;;;18.35;2.72;;;;;;;;;;4991982;28;20104;-65
2022/03/17 06:00:09;;;;;;;14.63;2.60;;;;;;;;;;4991931;28;20457;-65
2022/03/17 06:02:37;;;;;;;13.88;2.50;;;;;;;;;;5005468;28;20080;-65
2022/03/17 06:05:06;;;;;;;11.38;2.03;;;;;;;;;;4986186;28;20062;-65
2022/03/17 06:07:38;;;;;;;10.40;1.80;;;;;;;;;;4990628;28;20507;-65
2022/03/17 06:10:06;;;;;;;11.80;2.25;;;;;;;;;;4989107;28;20046;-65
2022/03/17 06:12:33;;;;;;;13.13;1.80;;;;;;;;;;4982840;28;20069;-65
2022/03/17 06:15:02;;;;;;;13.55;1.85;;;;;;;;;;4978488;28;20069;-65
2022/03/17 06:17:39;;;;;;;15.25;2.00;;;;;;;;;;4981669;28;20046;-66
2022/03/17 06:20:09;;;;;;;17.52;2.53;;;;;;;;;;4999169;28;20061;-66
2022/03/17 06:22:37;;;;;;;15.30;2.08;;;;;;;;;;4983086;28;20061;-66
2022/03/17 06:25:05;;;;;;;16.65;2.15;;;;;;;;;;4983029;28;20144;-66
2022/03/17 06:27:34;;;;;;;19.20;2.47;;;;;;;;;;4980828;28;20124;-66
2022/03/17 06:30:01;;;;;;;16.08;2.35;;;;;;;;;;4979035;28;20077;-65
2022/03/17 06:32:28;;;;;;;14.23;3.10;;;;;;;;;;4987840;28;20045;-65
2022/03/17 06:34:55;;;;;;;22.90;2.80;;;;;;;;;;4984885;28;20069;-66
2022/03/17 06:37:24;;;;;;;19.83;2.92;;;;;;;;;;4989482;28;20444;-66
2022/03/17 06:39:53;;;;;;;20.63;3.05;;;;;;;;;;4999674;28;20057;-65
2022/03/17 06:42:20;;;;;;;25.25;3.80;;;;;;;;;;4981993;28;20164;-66
2022/03/17 06:44:47;;;;;;;30.55;4.35;;;;;;;;;;4978638;28;20073;-66
2022/03/17 06:47:15;;;;;;;26.63;3.28;;;;;;;;;;4985084;28;20054;-65
2022/03/17 06:49:42;;;;;;;22.50;2.60;;;;;;;;;;4984901;28;20050;-65
2022/03/17 06:52:09;;;;;;;18.33;2.50;;;;;;;;;;4988860;28;20064;-65
2022/03/17 06:54:38;;;;;;;25.27;2.97;;;;;;;;;;4984804;28;20061;-65
2022/03/17 06:57:05;;;;;;;20.10;2.45;;;;;;;;;;4985893;28;20054;-66
2022/03/17 06:59:32;;;;;;;18.92;2.28;;;;;;;;;;4997203;28;20061;-66
2022/03/17 07:02:00;;;;;;;24.42;2.38;;;;;;;;;;5004282;28;20054;-66
2022/03/17 07:04:27;;;;;;;24.73;3.10;;;;;;;;;;4981823;28;20058;-66
2022/03/17 07:06:54;;;;;;;27.85;4.30;;;;;;;;;;5002523;28;20049;-66
2022/03/17 07:09:21;;;;;;;22.23;2.92;;;;;;;;;;4987923;28;20054;-66
2022/03/17 07:11:50;;;;;;;23.10;2.90;;;;;;;;;;4984616;28;20049;-66
2022/03/17 07:14:17;;;;;;;22.95;3.17;;;;;;;;;;4988024;28;20133;-66
2022/03/17 07:16:44;;;;;;;29.73;2.67;;;;;;;;;;4987463;28;20464;-66
2022/03/17 07:19:12;;;;;;;28.10;4.13;;;;;;;;;;4987345;28;20054;-66
2022/03/17 07:21:39;;;;;;;25.45;3.38;;;;;;;;;;4987124;28;20050;-66
2022/03/17 07:24:09;;;;;;;30.25;3.03;;;;;;;;;;5003960;28;20054;-66
2022/03/17 07:26:36;;;;;;;30.63;3.08;;;;;;;;;;4985169;28;20093;-66
2022/03/17 07:29:05;;;;;;;34.45;3.90;;;;;;;;;;5007680;28;20050;-66
2022/03/17 07:31:33;;;;;;;29.20;3.45;;;;;;;;;;4985012;28;20386;-66
2022/03/17 07:34:00;;;;;;;19.50;3.25;;;;;;;;;;4986160;28;20080;-66
2022/03/17 07:36:28;;;;;;;23.42;2.95;;;;;;;;;;4980346;28;20089;-66
2022/03/17 07:38:56;;;;;;;29.23;3.78;;;;;;;;;;4979591;28;20060;-66
2022/03/17 07:41:23;;;;;;;32.90;4.68;;;;;;;;;;4985954;28;20057;-66
2022/03/17 07:43:50;;;;;;;25.45;3.22;;;;;;;;;;4983798;28;20072;-66
2022/03/17 07:46:19;;;;;;;20.33;2.58;;;;;;;;;;4986438;28;20397;-66
2022/03/17 07:48:46;;;;;;;19.98;2.60;;;;;;;;;;4985731;28;20089;-66
2022/03/17 07:51:14;;;;;;;27.38;3.05;;;;;;;;;;4987562;28;20061;-66
2022/03/17 07:53:42;;;;;;;30.08;4.13;;;;;;;;;;4984364;28;20168;-66
2022/03/17 07:56:10;;;;;;;32.17;4.32;;;;;;;;;;4985845;28;20058;-66
2022/03/17 07:58:38;;;;;;;32.97;3.40;;;;;;;;;;4985248;28;20054;-66
2022/03/17 08:01:06;;;;;;;29.92;3.85;;;;;;;;;;4982476;28;20124;-66
2022/03/17 08:03:35;;;;;;;22.98;3.20;;;;;;;;;;4983030;28;20057;-66
2022/03/17 08:06:02;;;;;;;21.77;2.88;;;;;;;;;;4982979;28;20092;-66
2022/03/17 08:08:29;;;;;;;16.23;2.40;;;;;;;;;;4985564;28;20123;-66
2022/03/17 08:10:57;;;;;;;17.38;2.78;;;;;;;;;;4988907;28;20057;-66
2022/03/17 08:13:25;;;;;;;20.35;3.05;;;;;;;;;;4984849;28;20511;-66
2022/03/17 08:15:54;;;;;;;21.58;3.40;;;;;;;;;;5006287;28;20046;-66
2022/03/17 08:18:21;;;;;;;26.08;3.47;;;;;;;;;;4987446;28;20054;-66
2022/03/17 08:20:50;;;;;;;25.10;3.05;;;;;;;;;;4988091;28;20045;-66
2022/03/17 08:23:21;;;;;;;20.33;2.58;;;;;;;;;;4989091;28;20088;-66
2022/03/17 08:25:49;;;;;;;25.10;3.10;;;;;;;;;;4989546;28;20057;-66
2022/03/17 08:28:18;;;;;;;24.23;3.53;;;;;;;;;;5014442;28;20141;-66
2022/03/17 08:30:46;;;;;;;24.40;3.28;;;;;;;;;;4988767;28;20041;-66
2022/03/17 08:33:14;;;;;;;20.73;2.83;;;;;;;;;;4989260;28;20049;-66
2022/03/17 08:35:41;;;;;;;23.67;2.85;;;;;;;;;;4991649;28;20461;-66
2022/03/17 08:38:10;;;;;;;31.95;2.97;;;;;;;;;;4989853;28;20053;-66
2022/03/17 08:40:38;;;;;;;16.25;2.35;;;;;;;;;;4986828;28;20097;-66
2022/03/17 08:43:06;;;;;;;20.50;2.95;;;;;;;;;;4988670;28;20066;-67
2022/03/17 08:51:02;;;;;;;26.42;3.78;;;;;;;;;;5005015;28;20151;-66
2022/03/17 08:53:31;;;;;;;23.58;3.63;;;;;;;;;;4986259;28;20062;-66
2022/03/17 08:56:01;;;;;;;21.90;3.03;;;;;;;;;;4985394;28;20061;-66
2022/03/17 08:58:28;;;;;;;19.80;2.75;;;;;;;;;;4989922;28;20046;-66
2022/03/17 09:00:56;;;;;;;17.90;2.83;;;;;;;;;;4991966;28;20408;-66
2022/03/17 09:03:25;;;;;;;20.42;2.63;;;;;;;;;;4988210;28;20058;-66
2022/03/17 09:05:52;;;;;;;20.15;2.35;;;;;;;;;;4977891;28;20054;-66
2022/03/17 09:08:19;;;;;;;22.50;2.95;;;;;;;;;;4987358;28;20065;-66
2022/03/17 09:10:48;;;;;;;21.45;3.08;;;;;;;;;;4989870;28;20104;-66
2022/03/17 09:13:16;;;;;;;24.85;3.40;;;;;;;;;;4992850;28;20077;-66
2022/03/17 09:15:43;;;;;;;20.08;3.42;;;;;;;;;;4986801;28;20053;-66
2022/03/17 09:18:11;;;;;;;18.85;2.67;;;;;;;;;;4987337;28;20053;-66
2022/03/17 09:20:38;;;;;;;15.77;2.13;;;;;;;;;;5009723;28;20045;-66
2022/03/17 09:23:05;;;;;;;22.92;3.08;;;;;;;;;;5003189;28;20085;-66
2022/03/17 09:25:33;;;;;;;23.63;3.13;;;;;;;;;;4997880;28;20554;-66
2022/03/17 09:28:02;;;;;;;22.40;3.08;;;;;;;;;;4993165;28;20057;-66
2022/03/17 09:30:29;;;;;;;20.35;3.00;;;;;;;;;;4986975;28;20050;-66
2022/03/17 09:32:58;;;;;;;21.77;2.97;;;;;;;;;;5007967;28;20054;-66
2022/03/17 09:35:26;;;;;;;21.25;3.28;;;;;;;;;;4984639;28;20128;-66
2022/03/17 09:37:54;;;;;;;19.75;3.05;;;;;;;;;;4985014;28;20062;-66
2022/03/17 09:40:21;;;;;;;17.08;3.33;;;;;;;;;;4992020;28;20046;-66
2022/03/17 09:42:48;;;;;;;21.23;3.30;;;;;;;;;;4991460;28;20046;-66
2022/03/17 09:45:17;;;;;;;18.73;3.08;;;;;;;;;;4987351;28;20069;-66
2022/03/17 09:47:45;;;;;;;17.75;2.88;;;;;;;;;;4984790;28;20411;-66
2022/03/17 09:50:16;;;;;;;25.27;4.45;;;;;;;;;;4984556;28;20050;-66
2022/03/17 09:52:47;;;;;;;18.77;2.33;;;;;;;;;;5004943;28;20054;-66
2022/03/17 09:55:15;;;;;;;23.20;2.70;;;;;;;;;;4992342;28;20053;-66
2022/03/17 09:57:42;;;;;;;14.95;2.88;;;;;;;;;;4992220;28;20139;-66
2022/03/17 10:00:12;;;;;;;21.90;3.28;;;;;;;;;;4986571;28;20045;-66
2022/03/17 10:02:42;;;;;;;20.73;3.30;;;;;;;;;;5011028;28;20064;-66
2022/03/17 10:05:11;;;;;;;25.73;2.83;;;;;;;;;;4992667;28;20062;-66
2022/03/17 10:07:39;;;;;;;16.55;2.63;;;;;;;;;;4980388;28;20089;-66
2022/03/17 10:10:07;;;;;;;15.77;2.88;;;;;;;;;;4984159;28;20063;-66
2022/03/17 10:12:34;;;;;;;28.23;3.92;;;;;;;;;;4982878;28;20053;-67
2022/03/17 10:15:01;;;;;;;26.23;3.50;;;;;;;;;;4977364;28;20045;-66
2022/03/17 10:17:31;;;;;;;18.35;3.58;;;;;;;;;;4977768;28;20058;-66
2022/03/17 10:20:12;;;;;;;20.52;3.40;;;;;;;;;;4977861;28;20133;-66
2022/03/17 10:22:41;;;;;;;27.98;3.97;;;;;;;;;;4985200;28;20390;-66
2022/03/17 10:25:09;;;;;;;23.33;3.92;;;;;;;;;;4986633;28;20076;-66
2022/03/17 10:27:40;;;;;;;19.65;2.80;;;;;;;;;;4987180;28;20058;-66
2022/03/17 10:30:08;;;;;;;23.52;3.63;;;;;;;;;;4990483;28;20128;-66
2022/03/17 10:32:36;;;;;;;18.42;3.45;;;;;;;;;;5006416;28;20054;-66
2022/03/17 10:35:05;;;;;;;18.55;3.72;;;;;;;;;;4988698;28;20096;-66
2022/03/17 10:37:36;;;;;;;22.60;3.38;;;;;;;;;;4987227;28;20622;-66
2022/03/17 10:40:10;;;;;;;23.48;3.47;;;;;;;;;;4988572;28;20105;-66
2022/03/17 10:42:38;;;;;;;30.15;4.25;;;;;;;;;;4984418;28;20050;-66
2022/03/17 10:45:07;;;;;;;22.02;3.63;;;;;;;;;;4989319;28;20535;-66
2022/03/17 10:47:35;;;;;;;20.20;3.42;;;;;;;;;;4988411;28;20061;-66
2022/03/17 10:50:08;;;;;;;27.10;3.70;;;;;;;;;;4990301;28;20096;-66
2022/03/17 10:52:35;;;;;;;;;;;;;;;;;;4988581;28;20049;-66
2022/03/17 10:55:03;;;;;;;20.13;3.22;;;;;;;;;;4986742;28;19929;-66
2022/03/17 10:57:31;;;;;;;20.88;3.03;;;;;;;;;;4989344;28;20076;-66
2022/03/17 10:59:58;;;;;;;27.92;4.07;;;;;;;;;;4987152;28;20113;-66
2022/03/17 11:02:26;;;;;;;23.35;4.85;;;;;;;;;;4983289;28;20058;-66
2022/03/17 11:04:55;;;;;;;18.67;3.72;;;;;;;;;;4987096;28;20049;-66
2022/03/17 11:07:23;;;;;;;20.55;3.38;;;;;;;;;;5005596;28;20057;-66
2022/03/17 11:09:50;;;;;;;33.60;4.55;;;;;;;;;;4987479;28;20042;-66
2022/03/17 11:12:20;;;;;;;22.15;3.10;;;;;;;;;;4983995;28;20048;-66
2022/03/17 11:14:49;;;;;;;19.80;3.22;;;;;;;;;;4982870;28;20746;-66
2022/03/17 11:17:26;;;;;;;18.55;3.60;;;;;;;;;;4999206;28;20080;-66
2022/03/17 11:19:54;;;;;;;19.67;3.22;;;;;;;;;;4985936;28;20054;-67
2022/03/17 11:22:27;;;;;;;19.23;2.85;;;;;;;;;;4983533;28;20042;-66
2022/03/17 11:25:09;;;;;;;20.73;3.17;;;;;;;;;;5000693;28;20132;-66
2022/03/17 11:27:45;;;;;;;24.42;3.25;;;;;;;;;;4990730;28;20076;-66
2022/03/17 11:30:14;;;;;;;24.73;4.05;;;;;;;;;;5007375;28;20056;-66
2022/03/17 11:32:49;;;;;;;14.63;2.67;;;;;;;;;;4988611;28;20544;-66
2022/03/17 11:35:18;;;;;;;19.13;2.72;;;;;;;;;;4987862;28;20124;-66
2022/03/17 11:37:47;;;;;;;14.98;2.88;;;;;;;;;;5006276;28;20053;-66
2022/03/17 11:40:15;;;;;;;18.70;2.85;;;;;;;;;;4989302;28;20079;-66
2022/03/17 11:42:44;;;;;;;21.90;3.10;;;;;;;;;;5006267;28;20046;-66
2022/03/17 11:45:12;;;;;;;20.17;2.85;;;;;;;;;;4988737;28;20061;-66
2022/03/17 11:47:44;;;;;;;25.50;3.35;;;;;;;;;;4989220;28;20053;-66
2022/03/17 11:50:26;;;;;;;14.80;2.80;;;;;;;;;;5007875;28;20477;-66
2022/03/17 11:52:57;;;;;;;19.05;3.35;;;;;;;;;;4986534;28;20065;-66
2022/03/17 11:55:38;;;;;;;16.30;2.75;;;;;;;;;;4985534;28;20050;-66
2022/03/17 11:58:30;;;;;;;19.80;3.35;;;;;;;;;;4986733;28;20049;-66
2022/03/17 12:01:04;;;;;;;13.40;2.35;;;;;;;;;;4989636;28;20165;-66
2022/03/17 12:03:32;;;;;;;17.13;2.80;;;;;;;;;;5005722;28;20058;-66
2022/03/17 12:06:10;;;;;;;14.85;3.08;;;;;;;;;;4987122;28;20057;-66
2022/03/17 12:08:41;;;;;;;17.48;2.60;;;;;;;;;;4987769;28;20049;-66
2022/03/17 12:11:10;;;;;;;16.13;2.55;;;;;;;;;;4994083;28;20176;-67
2022/03/17 12:13:37;;;;;;;13.00;2.67;;;;;;;;;;4991577;28;20050;-68
2022/03/17 12:16:05;;;;;;;15.38;3.20;;;;;;;;;;5012431;28;20140;-67
2022/03/17 12:18:47;;;;;;;18.95;3.17;;;;;;;;;;4990367;28;20551;-67
2022/03/17 12:21:15;;;;;;;17.40;2.88;;;;;;;;;;4986581;28;20049;-67
2022/03/17 12:23:49;;;;;;;16.58;2.90;;;;;;;;;;4986847;28;20099;-67
2022/03/17 12:26:20;;;;;;;15.20;2.70;;;;;;;;;;4986458;28;20046;-67
2022/03/17 12:28:47;;;;;;;17.45;2.75;;;;;;;;;;4985373;28;21239;-67
2022/03/17 12:31:15;;;;;;;14.25;2.40;;;;;;;;;;4990109;28;20058;-67
2022/03/17 12:33:45;;;;;;;12.30;2.40;;;;;;;;;;4989821;28;20065;-67
2022/03/17 12:36:14;;;;;;;12.43;2.58;;;;;;;;;;4992063;28;20144;-67
2022/03/17 12:38:41;;;;;;;14.88;3.10;;;;;;;;;;4989918;28;20092;-67
2022/03/17 12:41:14;;;;;;;11.82;2.97;;;;;;;;;;4991552;28;20136;-67
2022/03/17 12:43:41;;;;;;;12.57;2.50;;;;;;;;;;4984036;28;20065;-67
2022/03/17 12:46:09;;;;;;;11.68;2.63;;;;;;;;;;4987142;28;20062;-69
2022/03/17 12:48:37;;;;;;;13.60;2.67;;;;;;;;;;4984068;28;20052;-68
2022/03/17 12:51:05;;;;;;;15.20;3.10;;;;;;;;;;5008785;28;20099;-67
2022/03/17 12:53:33;;;;;;;17.02;3.03;;;;;;;;;;5005203;28;20152;-67
2022/03/17 12:56:00;;;;;;;13.02;2.20;;;;;;;;;;4989092;28;20065;-67
2022/03/17 12:58:28;;;;;;;13.77;2.53;;;;;;;;;;4991568;28;21167;-67
2022/03/17 13:00:56;;;;;;;10.57;1.95;;;;;;;;;;4990707;28;20068;-67
2022/03/17 13:03:25;;;;;;;11.30;2.40;;;;;;;;;;5010921;28;20101;-67
2022/03/17 13:08:39;;;;;;;14.30;2.58;;;;;;;;;;4994151;28;20056;-67
2022/03/17 13:16:45;;;;;;;13.38;2.38;;;;;;;;;;4988228;28;20071;-67
2022/03/17 13:19:12;;;;;;;8.90;2.47;;;;;;;;;;4990347;28;20119;-67
2022/03/17 13:21:39;;;;;;;10.07;2.35;;;;;;;;;;4987451;28;20089;-67
2022/03/17 13:24:16;;;;;;;7.03;1.65;;;;;;;;;;4989252;28;20080;-67
2022/03/17 13:26:43;;;;;;;11.13;2.20;;;;;;;;;;4989857;28;20054;-67
2022/03/17 13:29:14;;;;;;;14.05;2.35;;;;;;;;;;5009294;28;20057;-67
2022/03/17 13:31:42;;;;;;;10.98;2.10;;;;;;;;;;4987284;28;20046;-67
2022/03/17 13:34:10;;;;;;;11.07;1.90;;;;;;;;;;4989065;28;20057;-67
2022/03/17 13:36:53;;;;;;;7.95;1.88;;;;;;;;;;4991685;28;20050;-67
2022/03/17 13:39:20;;;;;;;9.77;2.05;;;;;;;;;;4992279;28;20104;-67
2022/03/17 13:41:57;;;;;;;9.23;1.85;;;;;;;;;;4991013;28;20132;-67
2022/03/17 13:44:26;;;;;;;11.90;2.15;;;;;;;;;;4995026;28;20104;-67
2022/03/17 13:46:53;;;;;;;9.10;2.40;;;;;;;;;;4990171;28;20523;-67
2022/03/17 13:49:27;;;;;;;8.82;2.10;;;;;;;;;;4994490;28;20089;-67
2022/03/17 13:51:54;;;;;;;12.57;2.30;;;;;;;;;;5006887;28;20137;-67
2022/03/17 13:54:21;;;;;;;15.40;2.83;;;;;;;;;;4994641;28;20049;-67
2022/03/17 13:56:48;;;;;;;11.77;2.30;;;;;;;;;;5000135;28;20052;-67
2022/03/17 13:59:16;;;;;;;8.40;2.10;;;;;;;;;;4993096;28;20073;-67
2022/03/17 14:01:44;;;;;;;10.23;2.13;;;;;;;;;;4988868;28;20081;-67
2022/03/17 14:04:11;;;;;;;9.48;2.08;;;;;;;;;;4988977;28;20500;-67
2022/03/17 14:06:40;;;;;;;9.98;2.10;;;;;;;;;;4993820;28;20445;-67
2022/03/17 14:09:12;;;;;;;11.60;2.30;;;;;;;;;;4993581;28;20677;-67
2022/03/17 14:11:39;;;;;;;8.40;2.10;;;;;;;;;;5007634;28;20061;-68
2022/03/17 14:14:07;;;;;;;9.80;1.98;;;;;;;;;;4996275;28;21216;-67
2022/03/17 14:16:35;;;;;;;11.48;1.98;;;;;;;;;;4992369;28;20628;-67
2022/03/17 14:19:05;;;;;;;9.60;1.98;;;;;;;;;;4993605;28;20065;-67
2022/03/17 14:21:33;;;;;;;10.48;2.28;;;;;;;;;;4998568;28;20664;-67
2022/03/17 14:24:12;;;;;;;10.48;2.00;;;;;;;;;;4994186;28;20067;-67
2022/03/17 14:26:41;;;;;;;8.20;1.85;;;;;;;;;;4988384;28;20488;-67
2022/03/17 14:29:09;;;;;;;14.05;2.20;;;;;;;;;;4990648;28;20505;-67
2022/03/17 14:31:38;;;;;;;12.20;2.47;;;;;;;;;;4990727;28;20057;-67
2022/03/17 14:34:07;;;;;;;10.23;2.20;;;;;;;;;;4987766;28;20049;-67
2022/03/17 14:36:38;;;;;;;10.85;2.38;;;;;;;;;;4993463;28;20093;-68
2022/03/17 14:39:08;;;;;;;10.95;2.58;;;;;;;;;;4992909;28;20563;-68
2022/03/17 14:41:36;;;;;;;11.23;2.45;;;;;;;;;;4987785;28;20045;-68
2022/03/17 14:44:03;;;;;;;6.75;1.83;;;;;;;;;;4988917;28;20124;-68
2022/03/17 14:46:30;;;;;;;9.88;2.50;;;;;;;;;;4987400;28;20057;-68
2022/03/17 14:48:59;;;;;;;9.48;2.25;;;;;;;;;;4994587;28;20050;-68
2022/03/17 14:51:28;;;;;;;10.27;2.15;;;;;;;;;;4989441;28;20065;-68
2022/03/17 14:53:55;;;;;;;8.35;2.58;;;;;;;;;;4988866;28;20062;-68
2022/03/17 14:56:24;;;;;;;12.32;2.80;;;;;;;;;;5001948;28;20052;-68
2022/03/17 14:58:52;;;;;;;14.98;2.90;;;;;;;;;;4986947;28;20060;-68